Terminal Aerodrome Forecast
Issued by NWS

Home | Current Version | Previous Version | Text Only | Print | Product List | Glossary On
Versions: 1 2 3 4 5 6 7 8 9 10 11 12 13 14
000
FTUS44 KEPZ 270600 AAA
TAFLRU
TAF AMD
KLRU 270656Z 2707/2806 24015KT P6SM VCSH BKN070 OVC120
      TEMPO 2707/2709 3SM TSRA SCT020 BKN040CB OVC100
     FM270900 26006KT P6SM VCSH FEW020 BKN040 OVC100
     FM271200 34007KT P6SM FEW015 SCT030 BKN060=

USA.gov is the U.S. government's official web portal to all federal, state and local government web resources and services.